Time;durP1;ratioP1;P1;durP2;ratioP2;P2;SDS_P1;SDS_P2;PMS_P1;PMS_P2;Temp;Humidity;BMP_temperature;BMP_pressure;BME280_temperature;BME280_humidity;BME280_pressure;Samples;Min_cycle;Max_cycle;Signal;HPM_P1;HPM_P2
2024/02/21 00:00:19;;;;;;;;;;;;;;;19.55;52.43;101574.00;2063839;28;6470;-67
2024/02/21 00:01:21;;;;;;;;;;;;;;;19.55;52.36;101574.00;2064339;28;2167;-69
2024/02/21 00:02:23;;;;;;;;;;;;;;;19.55;52.44;101573.25;2067146;28;2178;-62
2024/02/21 00:03:24;;;;;;;;;;;;;;;19.55;52.50;101568.25;2065906;28;2255;-68
2024/02/21 00:04:26;;;;;;;;;;;;;;;19.55;52.37;101567.50;2065938;28;2280;-66
2024/02/21 00:05:27;;;;;;;;;;;;;;;19.54;52.57;101566.75;2069221;28;2158;-68
2024/02/21 00:06:29;;;;;;;;;;;;;;;19.54;52.40;101566.75;2065841;28;2188;-67
2024/02/21 00:07:30;;;;;;;;;;;;;;;19.54;52.24;101572.50;2067703;28;2138;-67
2024/02/21 00:08:32;;;;;;;;;;;;;;;19.53;52.38;101556.63;2066944;28;2322;-67
2024/02/21 00:09:34;;;;;;;;;;;;;;;19.54;52.26;101566.00;2065454;28;2138;-66
2024/02/21 00:10:35;;;;;;;;;;;;;;;19.53;52.19;101565.25;2067539;28;2155;-67
2024/02/21 00:11:37;;;;;;;;;;;;;;;19.53;52.30;101562.38;2066404;28;2177;-68
2024/02/21 00:12:39;;;;;;;;;;;;;;;19.54;52.14;101558.16;2064369;28;2269;-67
2024/02/21 00:13:40;;;;;;;;;;;;;;;19.52;52.24;101563.75;2067180;28;2196;-68
2024/02/21 00:14:42;;;;;;;;;;;;;;;19.53;52.18;101565.25;2068073;28;2194;-67
2024/02/21 00:15:43;;;;;;;;;;;;;;;19.52;52.18;101560.88;2066879;28;2124;-67
2024/02/21 00:16:44;;;;;;;;;;;;;;;19.53;52.19;101559.50;2070987;28;2183;-67
2024/02/21 00:17:46;;;;;;;;;;;;;;;19.51;52.29;101556.50;2069983;28;2125;-68
2024/02/21 00:18:47;;;;;;;;;;;;;;;19.52;52.29;101558.03;2070400;28;2344;-67
2024/02/21 00:19:49;;;;;;;;;;;;;;;19.52;52.14;101563.75;2069189;28;2153;-67
2024/02/21 00:20:50;;;;;;;;;;;;;;;19.53;52.24;101558.75;2070290;28;2335;-67
2024/02/21 00:21:52;;;;;;;;;;;;;;;19.51;52.24;101555.75;2071189;28;2126;-68
2024/02/21 00:22:53;;;;;;;;;;;;;;;19.50;52.20;101555.03;2070962;28;2189;-67
2024/02/21 00:23:54;;;;;;;;;;;;;;;19.51;52.12;101555.75;2067509;28;2157;-67
2024/02/21 00:24:56;;;;;;;;;;;;;;;19.50;52.26;101549.28;2070549;28;2106;-68
2024/02/21 00:25:57;;;;;;;;;;;;;;;19.50;52.19;101549.28;2064819;28;2350;-68
2024/02/21 00:26:58;;;;;;;;;;;;;;;19.50;52.12;101549.28;2067943;28;2222;-67
2024/02/21 00:28:00;;;;;;;;;;;;;;;19.49;52.18;101547.75;2068949;28;2277;-67
2024/02/21 00:29:01;;;;;;;;;;;;;;;19.50;51.97;101546.41;2066054;28;2173;-67
2024/02/21 00:30:06;;;;;;;;;;;;;;;19.49;52.12;101542.00;2066786;28;6068;-67
2024/02/21 00:31:07;;;;;;;;;;;;;;;19.48;52.12;101540.53;2069638;28;2121;-67
2024/02/21 00:32:08;;;;;;;;;;;;;;;19.49;52.05;101547.75;2065426;28;2248;-68
2024/02/21 00:33:10;;;;;;;;;;;;;;;19.49;52.14;101542.00;2067914;28;2135;-67
2024/02/21 00:34:12;;;;;;;;;;;;;;;19.49;52.15;101542.00;2068386;28;2055;-67
2024/02/21 00:35:14;;;;;;;;;;;;;;;19.49;52.06;101547.75;2067606;28;2162;-68
2024/02/21 00:36:16;;;;;;;;;;;;;;;19.48;52.05;101546.28;2070302;28;2164;-67
2024/02/21 00:37:17;;;;;;;;;;;;;;;19.47;52.04;101541.91;2069088;28;2121;-67
2024/02/21 00:38:18;;;;;;;;;;;;;;;19.48;52.08;101546.28;2069226;28;2451;-67
2024/02/21 00:39:20;;;;;;;;;;;;;;;19.47;52.01;101544.78;2068823;28;2269;-68
2024/02/21 00:40:22;;;;;;;;;;;;;;;19.48;52.00;101543.41;2071127;28;2106;-67
2024/02/21 00:41:23;;;;;;;;;;;;;;;19.48;52.05;101546.28;2071664;28;2114;-68
2024/02/21 00:42:24;;;;;;;;;;;;;;;19.47;51.96;101533.31;2070586;28;2153;-67
2024/02/21 00:43:26;;;;;;;;;;;;;;;19.47;51.87;101544.78;2066058;28;2076;-67
2024/02/21 00:44:27;;;;;;;;;;;;;;;19.48;51.96;101531.16;2067525;28;2150;-68
2024/02/21 00:45:28;;;;;;;;;;;;;;;19.47;51.97;101530.44;2066715;28;2582;-67
2024/02/21 00:46:30;;;;;;;;;;;;;;;19.46;51.94;101529.66;2067962;28;2234;-67
2024/02/21 00:47:31;;;;;;;;;;;;;;;19.47;51.83;101536.19;2069708;28;2179;-67
2024/02/21 00:48:34;;;;;;;;;;;;;;;19.46;51.79;101526.03;2067131;28;2150;-67
2024/02/21 00:49:35;;;;;;;;;;;;;;;19.46;51.96;101532.53;2067595;28;2188;-67
2024/02/21 00:50:37;;;;;;;;;;;;;;;19.46;51.90;101538.28;2066127;28;2233;-68
2024/02/21 00:51:39;;;;;;;;;;;;;;;19.46;51.77;101528.91;2067692;28;2152;-68
2024/02/21 00:52:40;;;;;;;;;;;;;;;19.45;51.76;101527.44;2066883;28;2093;-68
2024/02/21 00:53:42;;;;;;;;;;;;;;;19.46;51.73;101528.91;2067684;28;2095;-68
2024/02/21 00:54:43;;;;;;;;;;;;;;;19.45;51.80;101525.31;2068806;28;2427;-67
2024/02/21 00:55:54;;;;;;;;;;;;;;;19.45;51.65;101533.91;2067530;28;2208;-68
2024/02/21 00:56:56;;;;;;;;;;;;;;;19.45;51.66;101528.16;2070899;28;2130;-67
2024/02/21 00:57:57;;;;;;;;;;;;;;;19.45;51.78;101525.31;2070106;28;2159;-68
2024/02/21 00:58:58;;;;;;;;;;;;;;;19.44;51.75;101526.66;2068030;28;2495;-68
2024/02/21 01:00:00;;;;;;;;;;;;;;;19.45;51.72;101513.06;2067908;28;2266;-68
2024/02/21 01:01:01;;;;;;;;;;;;;;;19.45;51.74;101524.56;2066922;28;6140;-66
2024/02/21 01:02:03;;;;;;;;;;;;;;;19.45;51.72;101524.56;2070190;28;2495;-68
2024/02/21 01:03:04;;;;;;;;;;;;;;;19.46;51.62;101520.31;2066306;28;2105;-67
2024/02/21 01:04:05;;;;;;;;;;;;;;;19.44;51.68;101523.03;2068445;28;2142;-68
2024/02/21 01:05:07;;;;;;;;;;;;;;;19.44;51.61;101517.31;2069680;28;2089;-67
2024/02/21 01:06:09;;;;;;;;;;;;;;;19.45;51.69;101524.56;2070448;28;2176;-68
2024/02/21 01:07:10;;;;;;;;;;;;;;;19.44;51.70;101517.31;2068314;28;2163;-68
2024/02/21 01:08:12;;;;;;;;;;;;;;;19.44;51.56;101523.03;2069903;28;2086;-67
2024/02/21 01:09:14;;;;;;;;;;;;;;;19.43;51.63;101515.81;2068928;28;2531;-67
2024/02/21 01:10:16;;;;;;;;;;;;;;;19.43;51.60;101515.81;2068113;28;2204;-68
2024/02/21 01:11:18;;;;;;;;;;;;;;;19.43;51.58;101510.06;2069134;28;2101;-67
2024/02/21 01:12:19;;;;;;;;;;;;;;;19.42;51.50;101505.69;2068798;28;2098;-68
2024/02/21 01:13:21;;;;;;;;;;;;;;;19.42;51.48;101515.06;2068182;28;2156;-68
2024/02/21 01:14:22;;;;;;;;;;;;;;;19.42;51.56;101511.44;2067968;28;2128;-68
2024/02/21 01:15:24;;;;;;;;;;;;;;;19.42;51.41;101514.31;2067483;28;2249;-67
2024/02/21 01:16:25;;;;;;;;;;;;;;;19.43;51.52;101515.81;2067089;28;2098;-66
2024/02/21 01:17:27;;;;;;;;;;;;;;;19.41;51.47;101513.56;2068679;28;2169;-68
2024/02/21 01:18:28;;;;;;;;;;;;;;;19.41;51.53;101507.06;2068380;28;2109;-68
2024/02/21 01:19:30;;;;;;;;;;;;;;;19.41;51.42;101513.56;2069724;28;2332;-67
2024/02/21 01:20:31;;;;;;;;;;;;;;;19.41;51.40;101509.94;2070625;28;2156;-68
2024/02/21 01:21:32;;;;;;;;;;;;;;;19.41;51.47;101507.06;2069418;28;2089;-67
2024/02/21 01:22:34;;;;;;;;;;;;;;;19.40;51.28;101502.69;2066445;28;2132;-68
2024/02/21 01:23:36;;;;;;;;;;;;;;;19.41;51.38;101507.06;2069285;28;2221;-68
2024/02/21 01:24:38;;;;;;;;;;;;;;;19.40;51.53;101505.56;2067805;28;2241;-68
2024/02/21 01:25:39;;;;;;;;;;;;;;;19.40;51.39;101503.47;2068600;28;2270;-67
2024/02/21 01:26:41;;;;;;;;;;;;;;;19.40;51.38;101500.59;2068287;28;2160;-68
2024/02/21 01:27:42;;;;;;;;;;;;;;;19.40;51.46;101494.06;2067478;28;2174;-68
2024/02/21 01:28:43;;;;;;;;;;;;;;;19.41;51.36;101501.31;2065309;28;2199;-67
2024/02/21 01:29:46;;;;;;;;;;;;;;;19.40;51.39;101500.59;2066539;28;2189;-67
2024/02/21 01:30:47;;;;;;;;;;;;;;;19.39;51.26;101499.06;2065717;28;6078;-67
2024/02/21 01:31:49;;;;;;;;;;;;;;;19.40;51.30;101503.47;2068446;28;2109;-67
2024/02/21 01:32:50;;;;;;;;;;;;;;;19.40;51.35;101499.81;2066658;28;2188;-67
2024/02/21 01:33:51;;;;;;;;;;;;;;;19.39;51.36;101504.81;2066546;28;2207;-67
2024/02/21 01:34:53;;;;;;;;;;;;;;;19.37;51.22;101498.94;2067326;28;2243;-67
2024/02/21 01:35:55;;;;;;;;;;;;;;;19.40;51.25;101499.81;2068121;28;2088;-68
2024/02/21 01:36:57;;;;;;;;;;;;;;;19.39;51.35;101498.34;2066717;28;2102;-68
2024/02/21 01:37:58;;;;;;;;;;;;;;;19.37;51.15;101501.81;2067187;28;2247;-68
2024/02/21 01:39:00;;;;;;;;;;;;;;;19.37;50.98;101501.06;2066200;28;2099;-67
2024/02/21 01:40:02;;;;;;;;;;;;;;;19.37;51.30;101498.22;2066900;28;2137;-67
2024/02/21 01:41:04;;;;;;;;;;;;;;;19.38;51.11;101493.97;2069318;28;2098;-68
2024/02/21 01:42:05;;;;;;;;;;;;;;;19.38;51.27;101496.84;2067915;28;2026;-67
2024/02/21 01:43:17;;;;;;;;;;;;;;;19.37;51.13;101489.59;2068019;28;2314;-67
2024/02/21 01:44:19;;;;;;;;;;;;;;;19.37;51.25;101490.34;2066890;28;2181;-67
2024/02/21 01:45:20;;;;;;;;;;;;;;;19.37;51.10;101496.06;2067776;28;2099;-67
2024/02/21 01:46:22;;;;;;;;;;;;;;;19.36;51.16;101488.09;2067259;28;2642;-68
2024/02/21 01:47:23;;;;;;;;;;;;;;;19.37;51.12;101489.59;2066031;28;2149;-68
2024/02/21 01:48:25;;;;;;;;;;;;;;;19.37;51.21;101489.59;2068610;28;2056;-67
2024/02/21 01:49:27;;;;;;;;;;;;;;;19.36;51.04;101494.59;2066508;28;2474;-67
2024/02/21 01:50:28;;;;;;;;;;;;;;;19.36;51.16;101490.97;2065713;28;2184;-67
2024/02/21 01:51:30;;;;;;;;;;;;;;;19.36;51.16;101483.09;2068327;28;2504;-67
2024/02/21 01:52:32;;;;;;;;;;;;;;;19.38;51.03;101486.09;2067646;28;2111;-68
2024/02/21 01:53:36;;;;;;;;;;;;;;;19.37;51.06;101486.72;2067513;28;2110;-67
2024/02/21 01:54:38;;;;;;;;;;;;;;;19.36;51.08;101482.34;2065361;28;2125;-67
2024/02/21 01:55:39;;;;;;;;;;;;;;;19.36;51.07;101488.84;2067411;28;2131;-67
2024/02/21 01:56:44;;;;;;;;;;;;;;;19.36;51.15;101488.09;2065151;28;2131;-67
2024/02/21 01:57:46;;;;;;;;;;;;;;;19.35;51.06;101484.47;2065161;28;2506;-67
2024/02/21 01:58:48;;;;;;;;;;;;;;;19.36;51.13;101488.09;2066867;28;2131;-67
2024/02/21 01:59:49;;;;;;;;;;;;;;;19.34;51.13;101485.09;2067117;28;2439;-67
2024/02/21 02:00:51;;;;;;;;;;;;;;;19.34;51.06;101477.25;2066987;28;6285;-68
2024/02/21 02:01:53;;;;;;;;;;;;;;;19.34;51.03;101480.09;2065518;28;2212;-67
2024/02/21 02:02:55;;;;;;;;;;;;;;;19.34;50.95;101479.38;2066737;28;2210;-67
2024/02/21 02:03:57;;;;;;;;;;;;;;;19.35;51.01;101475.09;2067761;28;2193;-68
2024/02/21 02:04:59;;;;;;;;;;;;;;;19.34;51.00;101473.63;2068159;28;2240;-67
2024/02/21 02:06:01;;;;;;;;;;;;;;;19.35;50.96;101475.09;2066165;28;2091;-67
2024/02/21 02:07:04;;;;;;;;;;;;;;;19.35;51.04;101469.38;2068837;28;2208;-67
2024/02/21 02:08:06;;;;;;;;;;;;;;;19.33;51.12;101467.09;2069312;28;2208;-67
2024/02/21 02:09:07;;;;;;;;;;;;;;;19.35;51.03;101475.09;2067819;28;2163;-67
2024/02/21 02:10:09;;;;;;;;;;;;;;;19.33;50.95;101469.97;2068921;28;2185;-67
2024/02/21 02:11:13;;;;;;;;;;;;;;;19.33;51.04;101460.63;2067334;28;2242;-67
2024/02/21 02:12:14;;;;;;;;;;;;;;;19.32;51.08;101464.88;2068534;28;2165;-68
2024/02/21 02:13:16;;;;;;;;;;;;;;;19.31;51.07;101457.63;2067285;28;2541;-67
2024/02/21 02:14:17;;;;;;;;;;;;;;;19.32;51.13;101464.88;2068969;28;2228;-68
2024/02/21 02:15:19;;;;;;;;;;;;;;;19.32;50.97;101467.75;2066523;28;2588;-66
2024/02/21 02:16:20;;;;;;;;;;;;;;;19.32;51.08;101464.88;2066362;28;2142;-67
2024/02/21 02:17:22;;;;;;;;;;;;;;;19.31;51.09;101463.38;2066264;28;2135;-67
2024/02/21 02:18:23;;;;;;;;;;;;;;;19.30;51.03;101456.88;2065421;28;2162;-67
2024/02/21 02:19:25;;;;;;;;;;;;;;;19.30;51.02;101471.25;2064509;28;2157;-67
2024/02/21 02:20:26;;;;;;;;;;;;;;;19.31;51.05;101464.13;2067323;28;2098;-67
2024/02/21 02:21:37;;;;;;;;;;;;;;;19.30;51.08;101454.00;2068067;28;2251;-68
2024/02/21 02:22:40;;;;;;;;;;;;;;;19.31;51.09;101454.75;2067137;28;2426;-68
2024/02/21 02:23:42;;;;;;;;;;;;;;;19.30;51.04;101461.88;2065848;28;2141;-67
2024/02/21 02:24:43;;;;;;;;;;;;;;;19.30;50.86;101462.63;2068197;28;2136;-67
2024/02/21 02:25:45;;;;;;;;;;;;;;;19.30;51.04;101456.13;2065775;28;2178;-67
2024/02/21 02:26:46;;;;;;;;;;;;;;;19.30;51.03;101456.13;2065654;28;2519;-67
2024/02/21 02:27:48;;;;;;;;;;;;;;;19.30;51.09;101456.13;2063130;28;2176;-67
2024/02/21 02:28:49;;;;;;;;;;;;;;;19.29;50.99;101449.66;2061937;28;2445;-68
2024/02/21 02:29:52;;;;;;;;;;;;;;;19.29;51.07;101449.66;2064538;28;2170;-67
2024/02/21 02:30:53;;;;;;;;;;;;;;;19.29;50.99;101449.66;2062312;28;5987;-67
2024/02/21 02:31:55;;;;;;;;;;;;;;;19.30;51.06;101453.28;2066515;28;2498;-68
2024/02/21 02:32:56;;;;;;;;;;;;;;;19.30;50.95;101456.13;2067398;28;2159;-67
2024/02/21 02:33:58;;;;;;;;;;;;;;;19.29;51.07;101449.66;2066194;28;2208;-67
2024/02/21 02:34:59;;;;;;;;;;;;;;;19.29;51.09;101443.16;2066763;28;2181;-67
2024/02/21 02:36:01;;;;;;;;;;;;;;;19.28;51.10;101447.41;2065598;28;2123;-67
2024/02/21 02:37:02;;;;;;;;;;;;;;;19.29;51.04;101446.00;2065799;28;2127;-68
2024/02/21 02:38:04;;;;;;;;;;;;;;;19.27;50.99;101448.78;2065956;28;2199;-68
2024/02/21 02:39:05;;;;;;;;;;;;;;;19.27;51.10;101443.78;2068571;28;2148;-68
2024/02/21 02:40:07;;;;;;;;;;;;;;;19.28;50.95;101448.13;2068182;28;2121;-68
2024/02/21 02:41:08;;;;;;;;;;;;;;;19.29;50.94;101449.66;2068222;28;2204;-67
2024/02/21 02:42:09;;;;;;;;;;;;;;;19.27;51.09;101445.91;2068960;28;2157;-67
2024/02/21 02:43:11;;;;;;;;;;;;;;;19.27;51.07;101443.78;2067693;28;2152;-67
2024/02/21 02:44:12;;;;;;;;;;;;;;;19.28;51.15;101447.41;2065524;28;2233;-68
2024/02/21 02:45:14;;;;;;;;;;;;;;;19.27;51.07;101443.03;2065370;28;2119;-67
2024/02/21 02:46:15;;;;;;;;;;;;;;;19.27;51.18;101440.16;2066767;28;2501;-68
2024/02/21 02:47:16;;;;;;;;;;;;;;;19.26;51.23;101439.41;2065863;28;2116;-68
2024/02/21 02:48:19;;;;;;;;;;;;;;;19.27;51.01;101428.69;2066395;28;2170;-67
2024/02/21 02:49:21;;;;;;;;;;;;;;;19.25;51.09;101432.91;2066155;28;2311;-68
2024/02/21 02:50:26;;;;;;;;;;;;;;;19.25;51.25;101427.19;2067197;28;2127;-68
2024/02/21 02:51:27;;;;;;;;;;;;;;;19.26;51.15;101439.41;2065157;28;2115;-67
2024/02/21 02:52:29;;;;;;;;;;;;;;;19.25;51.07;101421.44;2067399;28;2397;-67
2024/02/21 02:53:30;;;;;;;;;;;;;;;19.26;51.14;101427.91;2067038;28;2226;-68
2024/02/21 02:54:31;;;;;;;;;;;;;;;19.25;51.13;101426.44;2065473;28;2444;-67
2024/02/21 02:55:33;;;;;;;;;;;;;;;19.25;51.20;101426.44;2067043;28;2405;-67
2024/02/21 02:56:34;;;;;;;;;;;;;;;19.24;51.11;101414.22;2066750;28;2082;-67
2024/02/21 02:57:36;;;;;;;;;;;;;;;19.25;51.24;101420.69;2064470;28;2105;-68
2024/02/21 02:58:37;;;;;;;;;;;;;;;19.23;51.22;101412.69;2065333;28;2123;-68
2024/02/21 02:59:38;;;;;;;;;;;;;;;19.24;51.13;101411.34;2065435;28;2187;-68
2024/02/21 03:00:40;;;;;;;;;;;;;;;19.24;51.18;101419.94;2064065;28;6276;-67
2024/02/21 03:01:41;;;;;;;;;;;;;;;19.24;51.23;101411.34;2065925;28;2527;-67
2024/02/21 03:02:44;;;;;;;;;;;;;;;19.24;51.16;101410.56;2066795;28;2177;-68
2024/02/21 03:03:47;;;;;;;;;;;;;;;19.25;51.07;101409.22;2065567;28;2208;-67
2024/02/21 03:04:48;;;;;;;;;;;;;;;19.24;51.21;101408.47;2065840;28;2288;-67
2024/02/21 03:05:50;;;;;;;;;;;;;;;19.24;51.12;101408.47;2066890;28;2177;-68
2024/02/21 03:06:51;;;;;;;;;;;;;;;19.23;51.22;101409.81;2066514;28;2117;-67
2024/02/21 03:07:53;;;;;;;;;;;;;;;19.23;51.33;101406.22;2065659;28;2354;-67
2024/02/21 03:08:54;;;;;;;;;;;;;;;19.23;51.09;101415.56;2067747;28;2262;-68
2024/02/21 03:09:56;;;;;;;;;;;;;;;19.22;51.25;101405.47;2063316;28;2083;-67
2024/02/21 03:10:57;;;;;;;;;;;;;;;19.23;51.22;101403.34;2065203;28;2540;-68
2024/02/21 03:12:02;;;;;;;;;;;;;;;19.22;51.21;101399.72;2065163;28;2459;-68
2024/02/21 03:13:04;;;;;;;;;;;;;;;19.22;51.08;101404.72;2065577;28;2150;-67
2024/02/21 03:14:06;;;;;;;;;;;;;;;19.21;51.27;101398.22;2066229;28;2120;-67
2024/02/21 03:15:07;;;;;;;;;;;;;;;19.20;51.24;101398.88;2066449;28;2222;-68
2024/02/21 03:16:09;;;;;;;;;;;;;;;19.21;51.24;101403.22;2066308;28;2569;-68
2024/02/21 03:17:10;;;;;;;;;;;;;;;19.23;51.28;101398.34;2065591;28;2113;-68
2024/02/21 03:18:11;;;;;;;;;;;;;;;19.23;51.23;101401.22;2065447;28;2094;-67
2024/02/21 03:19:13;;;;;;;;;;;;;;;19.21;51.21;101398.22;2065477;28;2091;-68
2024/02/21 03:20:15;;;;;;;;;;;;;;;19.27;51.15;101399.97;2066011;28;2223;-68
2024/02/21 03:21:16;;;;;;;;;;;;;;;19.26;51.13;101399.19;2063516;28;2412;-68
2024/02/21 03:22:17;;;;;;;;;;;;;;;19.25;51.21;101395.59;2065849;28;2226;-67
2024/02/21 03:23:19;;;;;;;;;;;;;;;19.22;51.24;101396.13;2064998;28;2130;-68
2024/02/21 03:24:20;;;;;;;;;;;;;;;19.21;51.38;101398.22;2066564;28;2129;-67
2024/02/21 03:25:22;;;;;;;;;;;;;;;19.21;51.25;101397.47;2065477;28;2155;-68
2024/02/21 03:26:23;;;;;;;;;;;;;;;19.20;51.19;101390.25;2066483;28;2456;-67
2024/02/21 03:27:24;;;;;;;;;;;;;;;19.20;51.23;101393.13;2064614;28;2228;-68
2024/02/21 03:28:26;;;;;;;;;;;;;;;19.20;51.15;101390.25;2065725;28;2355;-68
2024/02/21 03:29:27;;;;;;;;;;;;;;;19.20;51.21;101390.25;2065637;28;2367;-68
2024/02/21 03:30:29;;;;;;;;;;;;;;;19.19;51.30;101395.22;2064612;28;5988;-67
2024/02/21 03:31:30;;;;;;;;;;;;;;;19.18;51.35;101385.13;2033751;28;976166;-67
2024/02/21 03:32:33;;;;;;;;;;;;;;;19.19;51.34;101389.47;2066133;28;2232;-67
2024/02/21 03:33:34;;;;;;;;;;;;;;;19.19;51.32;101383.00;2066164;28;2115;-67
2024/02/21 03:34:35;;;;;;;;;;;;;;;19.18;51.29;101382.25;2067390;28;2535;-68
2024/02/21 03:35:37;;;;;;;;;;;;;;;19.18;51.34;101382.25;2065550;28;2187;-66
2024/02/21 03:36:38;;;;;;;;;;;;;;;19.17;51.29;101380.78;2066538;28;2779;-67
2024/02/21 03:37:40;;;;;;;;;;;;;;;19.18;51.43;101382.25;2064528;28;2128;-67
2024/02/21 03:38:41;;;;;;;;;;;;;;;19.17;51.40;101375.03;2065526;28;2128;-67
2024/02/21 03:39:42;;;;;;;;;;;;;;;19.17;51.33;101374.25;2064286;28;2155;-67
2024/02/21 03:40:44;;;;;;;;;;;;;;;19.19;51.18;101378.00;2066743;28;2303;-66
2024/02/21 03:41:45;;;;;;;;;;;;;;;19.18;51.22;101370.75;2065561;28;2170;-68
2024/02/21 03:42:47;;;;;;;;;;;;;;;19.18;51.29;101372.91;2065101;28;2154;-67
2024/02/21 03:43:48;;;;;;;;;;;;;;;19.18;51.31;101370.03;2066157;28;2143;-67
2024/02/21 03:44:49;;;;;;;;;;;;;;;19.18;51.35;101382.25;2066354;28;2219;-67
2024/02/21 03:45:51;;;;;;;;;;;;;;;19.17;51.23;101377.91;2065766;28;2597;-67
2024/02/21 03:46:52;;;;;;;;;;;;;;;19.19;51.27;101371.50;2064377;28;2501;-67
2024/02/21 03:47:54;;;;;;;;;;;;;;;19.18;51.20;101370.75;2066732;28;2193;-67
2024/02/21 03:48:55;;;;;;;;;;;;;;;19.18;51.22;101370.03;2064735;28;2088;-67
2024/02/21 03:49:58;;;;;;;;;;;;;;;19.19;51.30;101375.13;2064169;28;2456;-67
2024/02/21 03:50:59;;;;;;;;;;;;;;;19.18;51.28;101367.91;2065854;28;2315;-67
2024/02/21 03:52:00;;;;;;;;;;;;;;;19.19;51.19;101357.91;2064868;28;2099;-68
2024/02/21 03:53:02;;;;;;;;;;;;;;;19.19;51.23;101360.75;2066449;28;2132;-67
2024/02/21 03:54:03;;;;;;;;;;;;;;;19.21;51.09;101363.75;2066600;28;2373;-68
2024/02/21 03:55:05;;;;;;;;;;;;;;;19.21;51.13;101363.75;2065295;28;2447;-67
2024/02/21 03:56:07;;;;;;;;;;;;;;;19.21;51.06;101366.63;2066234;28;2405;-67
2024/02/21 03:57:08;;;;;;;;;;;;;;;19.23;51.07;101355.28;2065658;28;2108;-67
2024/02/21 03:58:09;;;;;;;;;;;;;;;19.24;50.97;101362.53;2065835;28;2005;-67
2024/02/21 03:59:11;;;;;;;;;;;;;;;19.24;51.02;101353.13;2065579;28;2343;-67
2024/02/21 04:00:12;;;;;;;;;;;;;;;19.25;51.13;101366.88;2065576;28;6253;-67
2024/02/21 04:01:15;;;;;;;;;;;;;;;19.25;50.83;101364.00;2065309;28;1953;-67
2024/02/21 04:02:17;;;;;;;;;;;;;;;19.27;51.05;101356.91;2067275;28;2145;-67
2024/02/21 04:03:19;;;;;;;;;;;;;;;19.27;50.99;101360.50;2066133;28;2039;-67
2024/02/21 04:04:21;;;;;;;;;;;;;;;19.28;51.01;101355.50;2065576;28;1976;-68
2024/02/21 04:05:22;;;;;;;;;;;;;;;19.28;50.97;101358.38;2065964;28;2001;-67
2024/02/21 04:06:24;;;;;;;;;;;;;;;19.29;51.08;101345.50;2065527;28;1997;-67
2024/02/21 04:07:25;;;;;;;;;;;;;;;19.28;51.01;101344.03;2063738;28;2020;-67
2024/02/21 04:08:27;;;;;;;;;;;;;;;19.28;50.97;101338.28;2066103;28;2071;-67
2024/02/21 04:09:28;;;;;;;;;;;;;;;19.29;50.99;101340.53;2065312;28;2294;-67
2024/02/21 04:10:29;;;;;;;;;;;;;;;19.29;51.02;101337.66;2064557;28;2369;-67
2024/02/21 04:11:31;;;;;;;;;;;;;;;19.29;51.01;101328.28;2067021;28;2013;-67
2024/02/21 04:12:32;;;;;;;;;;;;;;;19.28;51.03;101339.03;2065363;28;1993;-67
2024/02/21 04:13:34;;;;;;;;;;;;;;;19.28;50.97;101339.03;2065742;28;2321;-66
2024/02/21 04:14:35;;;;;;;;;;;;;;;19.29;51.05;101337.66;2065522;28;2149;-67
2024/02/21 04:15:37;;;;;;;;;;;;;;;19.28;51.09;101333.28;2068048;28;2139;-67
2024/02/21 04:16:39;;;;;;;;;;;;;;;19.29;51.16;101334.78;2067264;28;2214;-67
2024/02/21 04:17:41;;;;;;;;;;;;;;;19.30;51.03;101332.66;2067733;28;2035;-67
2024/02/21 04:18:42;;;;;;;;;;;;;;;19.28;51.01;101323.94;2062590;28;2004;-67
2024/02/21 04:19:44;;;;;;;;;;;;;;;19.31;51.13;101319.78;2064926;28;2012;-67
2024/02/21 04:20:46;;;;;;;;;;;;;;;19.31;51.17;101314.03;2065550;28;2013;-67
2024/02/21 04:21:47;;;;;;;;;;;;;;;19.30;51.13;101312.56;2066304;28;2131;-67
2024/02/21 04:22:49;;;;;;;;;;;;;;;19.30;51.26;101312.56;2066211;28;2089;-67
2024/02/21 04:23:50;;;;;;;;;;;;;;;19.30;51.20;101315.44;2065846;28;2091;-67
2024/02/21 04:24:52;;;;;;;;;;;;;;;19.31;51.27;101316.91;2064994;28;2211;-67
2024/02/21 04:25:53;;;;;;;;;;;;;;;19.32;51.28;101306.94;2064870;28;2379;-68
2024/02/21 04:26:54;;;;;;;;;;;;;;;19.33;51.32;101305.56;2066057;28;2024;-68
2024/02/21 04:27:56;;;;;;;;;;;;;;;19.33;51.23;101291.19;2067216;28;2064;-67
2024/02/21 04:28:57;;;;;;;;;;;;;;;19.32;51.32;101299.06;2064693;28;1988;-67
2024/02/21 04:29:59;;;;;;;;;;;;;;;19.34;51.36;101301.31;2067301;28;2010;-67
2024/02/21 04:31:00;;;;;;;;;;;;;;;19.34;51.47;101284.81;2066182;28;5953;-66
2024/02/21 04:32:02;;;;;;;;;;;;;;;19.35;51.35;101285.56;2065797;28;2189;-68
2024/02/21 04:33:03;;;;;;;;;;;;;;;19.35;51.65;101279.81;2065746;28;2028;-68
2024/02/21 04:34:06;;;;;;;;;;;;;;;19.35;51.71;101280.56;2066471;28;2052;-67
2024/02/21 04:35:07;;;;;;;;;;;;;;;19.35;51.58;101263.34;2067178;28;2045;-66
2024/02/21 04:36:09;;;;;;;;;;;;;;;19.35;51.68;101266.22;2065068;28;2147;-67
2024/02/21 04:37:10;;;;;;;;;;;;;;;19.36;51.65;101270.59;2067149;28;2052;-67
2024/02/21 04:38:12;;;;;;;;;;;;;;;19.36;51.66;101269.84;2064752;28;2055;-67
2024/02/21 04:39:13;;;;;;;;;;;;;;;19.36;51.84;101273.47;2066466;28;2151;-67
2024/02/21 04:40:16;;;;;;;;;;;;;;;19.36;51.64;101261.22;2066390;28;2028;-67
2024/02/21 04:41:18;;;;;;;;;;;;;;;19.36;51.78;101269.84;2064450;28;2074;-67
2024/02/21 04:42:19;;;;;;;;;;;;;;;19.36;51.84;101270.59;2065431;28;1996;-67
2024/02/21 04:43:21;;;;;;;;;;;;;;;19.37;51.94;101266.31;2066639;28;2077;-67
2024/02/21 04:44:22;;;;;;;;;;;;;;;19.36;51.86;101266.97;2065488;28;2204;-67
2024/02/21 04:45:23;;;;;;;;;;;;;;;19.37;51.77;101259.84;2066199;28;2172;-67
2024/02/21 04:46:25;;;;;;;;;;;;;;;19.35;51.75;101260.47;2066133;28;2224;-67
2024/02/21 04:47:27;;;;;;;;;;;;;;;19.36;51.70;101267.72;2066529;28;2083;-67
2024/02/21 04:48:28;;;;;;;;;;;;;;;19.36;51.71;101273.47;2066338;28;1975;-67
2024/02/21 04:49:29;;;;;;;;;;;;;;;19.37;51.65;101265.59;2066101;28;2117;-67
2024/02/21 04:50:31;;;;;;;;;;;;;;;19.36;51.74;101258.38;2066434;28;2038;-68
2024/02/21 04:51:32;;;;;;;;;;;;;;;19.38;51.92;101255.59;2065189;28;2009;-67
2024/02/21 04:52:36;;;;;;;;;;;;;;;19.38;51.94;101262.09;2064405;28;2026;-67
2024/02/21 04:53:37;;;;;;;;;;;;;;;19.40;52.01;101261.44;2066880;28;2298;-67
2024/02/21 04:54:39;;;;;;;;;;;;;;;19.38;51.95;101256.34;2066460;28;2379;-67
2024/02/21 04:55:41;;;;;;;;;;;;;;;19.39;51.96;101252.09;2065688;28;2117;-67
2024/02/21 04:56:42;;;;;;;;;;;;;;;19.39;51.94;101252.09;2066095;28;2321;-66
2024/02/21 04:57:44;;;;;;;;;;;;;;;19.41;52.03;101254.34;2066586;28;2228;-67
2024/02/21 04:58:45;;;;;;;;;;;;;;;19.40;51.95;101252.81;2066381;28;2020;-68
2024/02/21 04:59:50;;;;;;;;;;;;;;;19.41;52.03;101257.22;2067043;28;2110;-67
2024/02/21 05:00:51;;;;;;;;;;;;;;;19.42;52.12;101256.59;2066728;28;6170;-67
2024/02/21 05:01:53;;;;;;;;;;;;;;;19.42;52.34;101261.56;2066486;28;2156;-67
2024/02/21 05:02:54;;;;;;;;;;;;;;;19.42;52.20;101261.56;2066776;28;2243;-67
2024/02/21 05:03:55;;;;;;;;;;;;;;;19.43;52.26;101263.06;2067226;28;1981;-68
2024/02/21 05:04:57;;;;;;;;;;;;;;;19.43;52.22;101258.06;2066976;28;2356;-67
2024/02/21 05:05:58;;;;;;;;;;;;;;;19.42;52.18;101262.34;2067594;28;2062;-67
2024/02/21 05:07:01;;;;;;;;;;;;;;;19.43;52.24;101258.06;2066534;28;2181;-67
2024/02/21 05:08:02;;;;;;;;;;;;;;;19.43;52.03;101265.94;2066168;28;2468;-67
2024/02/21 05:09:04;;;;;;;;;;;;;;;19.42;52.06;101273.81;2067844;28;2386;-67
2024/02/21 05:10:07;;;;;;;;;;;;;;;19.42;52.16;101262.34;2066777;28;2076;-67
2024/02/21 05:11:08;;;;;;;;;;;;;;;19.42;52.10;101261.56;2068097;28;2010;-68
2024/02/21 05:12:09;;;;;;;;;;;;;;;19.41;52.02;101260.09;2069278;28;2059;-67
2024/02/21 05:13:11;;;;;;;;;;;;;;;19.42;52.04;101258.69;2067047;28;2057;-67
2024/02/21 05:14:12;;;;;;;;;;;;;;;19.43;52.08;101265.94;2067818;28;2330;-66
2024/02/21 05:15:14;;;;;;;;;;;;;;;19.41;51.98;101257.94;2068422;28;2042;-67
2024/02/21 05:16:15;;;;;;;;;;;;;;;19.42;52.14;101247.97;2067614;28;2046;-67
2024/02/21 05:17:17;;;;;;;;;;;;;;;19.43;52.11;101255.19;2066026;28;1996;-67
2024/02/21 05:18:19;;;;;;;;;;;;;;;19.43;52.27;101258.06;2067708;28;2072;-68
2024/02/21 05:19:21;;;;;;;;;;;;;;;19.44;52.23;101264.56;2066499;28;2007;-67
2024/02/21 05:20:22;;;;;;;;;;;;;;;19.45;52.27;101260.31;2066926;28;2011;-67
2024/02/21 05:21:24;;;;;;;;;;;;;;;19.45;52.30;101263.19;2066906;28;2015;-67